sensor_id;sensor_type;location;lat;lon;timestamp;P1;durP1;ratioP1;P2;durP2;ratioP2
32038;SDS011;18549;42.286;22.688;2023-08-24T00:00:22;11.70;;;9.00;;
32038;SDS011;18549;42.286;22.688;2023-08-24T00:02:49;16.42;;;8.98;;
32038;SDS011;18549;42.286;22.688;2023-08-24T00:05:16;11.57;;;8.75;;
32038;SDS011;18549;42.286;22.688;2023-08-24T00:07:42;11.63;;;8.68;;
32038;SDS011;18549;42.286;22.688;2023-08-24T00:10:09;10.98;;;8.82;;
32038;SDS011;18549;42.286;22.688;2023-08-24T00:12:38;14.85;;;9.48;;
32038;SDS011;18549;42.286;22.688;2023-08-24T00:15:08;15.35;;;8.48;;
32038;SDS011;18549;42.286;22.688;2023-08-24T00:17:37;12.25;;;9.52;;
32038;SDS011;18549;42.286;22.688;2023-08-24T00:20:05;11.57;;;8.93;;
32038;SDS011;18549;42.286;22.688;2023-08-24T00:22:35;10.40;;;8.57;;
32038;SDS011;18549;42.286;22.688;2023-08-24T00:25:03;10.45;;;8.88;;
32038;SDS011;18549;42.286;22.688;2023-08-24T00:27:33;9.60;;;8.68;;
32038;SDS011;18549;42.286;22.688;2023-08-24T00:30:01;14.80;;;9.68;;
32038;SDS011;18549;42.286;22.688;2023-08-24T00:32:29;15.77;;;9.07;;
32038;SDS011;18549;42.286;22.688;2023-08-24T00:35:00;17.85;;;9.07;;
32038;SDS011;18549;42.286;22.688;2023-08-24T00:37:27;8.73;;;7.78;;
32038;SDS011;18549;42.286;22.688;2023-08-24T00:39:54;10.70;;;9.05;;
32038;SDS011;18549;42.286;22.688;2023-08-24T00:42:21;10.43;;;9.38;;
32038;SDS011;18549;42.286;22.688;2023-08-24T00:44:48;12.95;;;8.55;;
32038;SDS011;18549;42.286;22.688;2023-08-24T00:47:15;11.52;;;9.18;;
32038;SDS011;18549;42.286;22.688;2023-08-24T00:49:42;10.93;;;8.85;;
32038;SDS011;18549;42.286;22.688;2023-08-24T00:52:10;10.93;;;9.07;;
32038;SDS011;18549;42.286;22.688;2023-08-24T00:54:37;21.87;;;10.20;;
32038;SDS011;18549;42.286;22.688;2023-08-24T00:57:05;11.55;;;9.32;;
32038;SDS011;18549;42.286;22.688;2023-08-24T00:59:33;9.70;;;8.40;;
32038;SDS011;18549;42.286;22.688;2023-08-24T01:02:00;10.15;;;9.00;;
32038;SDS011;18549;42.286;22.688;2023-08-24T01:04:28;14.25;;;9.32;;
32038;SDS011;18549;42.286;22.688;2023-08-24T01:06:55;11.48;;;9.27;;
32038;SDS011;18549;42.286;22.688;2023-08-24T01:09:23;14.98;;;9.45;;
32038;SDS011;18549;42.286;22.688;2023-08-24T01:11:53;12.80;;;8.75;;
32038;SDS011;18549;42.286;22.688;2023-08-24T01:14:30;12.80;;;8.83;;
32038;SDS011;18549;42.286;22.688;2023-08-24T01:17:04;9.82;;;8.52;;
32038;SDS011;18549;42.286;22.688;2023-08-24T01:19:37;11.65;;;9.00;;
32038;SDS011;18549;42.286;22.688;2023-08-24T01:22:07;11.00;;;9.23;;
32038;SDS011;18549;42.286;22.688;2023-08-24T01:24:42;13.57;;;8.70;;
32038;SDS011;18549;42.286;22.688;2023-08-24T01:27:15;10.52;;;9.43;;
32038;SDS011;18549;42.286;22.688;2023-08-24T01:29:42;12.82;;;9.40;;
32038;SDS011;18549;42.286;22.688;2023-08-24T01:32:09;10.10;;;8.95;;
32038;SDS011;18549;42.286;22.688;2023-08-24T01:34:37;16.90;;;8.68;;
32038;SDS011;18549;42.286;22.688;2023-08-24T01:37:04;12.88;;;9.05;;
32038;SDS011;18549;42.286;22.688;2023-08-24T01:39:35;10.18;;;9.18;;
32038;SDS011;18549;42.286;22.688;2023-08-24T01:42:08;10.32;;;9.27;;
32038;SDS011;18549;42.286;22.688;2023-08-24T01:44:42;11.85;;;8.60;;
32038;SDS011;18549;42.286;22.688;2023-08-24T01:47:15;12.40;;;9.45;;
32038;SDS011;18549;42.286;22.688;2023-08-24T01:49:43;11.02;;;8.63;;
32038;SDS011;18549;42.286;22.688;2023-08-24T01:52:11;10.98;;;9.80;;
32038;SDS011;18549;42.286;22.688;2023-08-24T01:54:39;12.50;;;9.82;;
32038;SDS011;18549;42.286;22.688;2023-08-24T01:57:06;9.43;;;8.63;;
32038;SDS011;18549;42.286;22.688;2023-08-24T01:59:33;11.77;;;8.88;;
32038;SDS011;18549;42.286;22.688;2023-08-24T02:02:01;12.65;;;8.57;;
32038;SDS011;18549;42.286;22.688;2023-08-24T02:04:28;11.27;;;8.48;;
32038;SDS011;18549;42.286;22.688;2023-08-24T02:06:54;9.63;;;8.30;;
32038;SDS011;18549;42.286;22.688;2023-08-24T02:09:21;13.00;;;9.02;;
32038;SDS011;18549;42.286;22.688;2023-08-24T02:11:48;13.38;;;8.98;;
32038;SDS011;18549;42.286;22.688;2023-08-24T02:14:15;17.20;;;9.60;;
32038;SDS011;18549;42.286;22.688;2023-08-24T02:16:44;15.77;;;9.98;;
32038;SDS011;18549;42.286;22.688;2023-08-24T02:19:15;12.15;;;9.65;;
32038;SDS011;18549;42.286;22.688;2023-08-24T02:21:42;12.93;;;8.88;;
32038;SDS011;18549;42.286;22.688;2023-08-24T02:24:09;17.67;;;9.65;;
32038;SDS011;18549;42.286;22.688;2023-08-24T02:26:36;12.73;;;9.80;;
32038;SDS011;18549;42.286;22.688;2023-08-24T02:29:03;17.33;;;10.45;;
32038;SDS011;18549;42.286;22.688;2023-08-24T02:31:30;16.02;;;12.93;;
32038;SDS011;18549;42.286;22.688;2023-08-24T02:33:56;24.25;;;16.58;;
32038;SDS011;18549;42.286;22.688;2023-08-24T02:36:25;20.83;;;14.75;;
32038;SDS011;18549;42.286;22.688;2023-08-24T02:38:52;15.23;;;11.52;;
32038;SDS011;18549;42.286;22.688;2023-08-24T02:41:19;13.70;;;11.07;;
32038;SDS011;18549;42.286;22.688;2023-08-24T02:43:46;22.15;;;11.20;;
32038;SDS011;18549;42.286;22.688;2023-08-24T02:46:12;12.60;;;10.95;;
32038;SDS011;18549;42.286;22.688;2023-08-24T02:48:39;11.38;;;10.18;;
32038;SDS011;18549;42.286;22.688;2023-08-24T02:51:07;13.23;;;9.77;;
32038;SDS011;18549;42.286;22.688;2023-08-24T02:53:36;12.50;;;10.32;;
32038;SDS011;18549;42.286;22.688;2023-08-24T02:56:03;12.25;;;10.80;;
32038;SDS011;18549;42.286;22.688;2023-08-24T02:58:31;14.02;;;10.52;;
32038;SDS011;18549;42.286;22.688;2023-08-24T03:00:58;16.02;;;10.55;;
32038;SDS011;18549;42.286;22.688;2023-08-24T03:03:24;11.12;;;10.02;;
32038;SDS011;18549;42.286;22.688;2023-08-24T03:05:57;17.55;;;10.45;;
32038;SDS011;18549;42.286;22.688;2023-08-24T03:08:24;12.20;;;10.15;;
32038;SDS011;18549;42.286;22.688;2023-08-24T03:10:53;14.30;;;10.10;;
32038;SDS011;18549;42.286;22.688;2023-08-24T03:13:22;16.80;;;10.38;;
32038;SDS011;18549;42.286;22.688;2023-08-24T03:15:50;14.27;;;10.20;;
32038;SDS011;18549;42.286;22.688;2023-08-24T03:18:17;11.65;;;10.45;;
32038;SDS011;18549;42.286;22.688;2023-08-24T03:20:45;16.62;;;10.40;;
32038;SDS011;18549;42.286;22.688;2023-08-24T03:23:12;14.00;;;10.05;;
32038;SDS011;18549;42.286;22.688;2023-08-24T03:25:40;14.65;;;9.32;;
32038;SDS011;18549;42.286;22.688;2023-08-24T03:28:09;11.38;;;10.18;;
32038;SDS011;18549;42.286;22.688;2023-08-24T03:30:37;11.93;;;10.60;;
32038;SDS011;18549;42.286;22.688;2023-08-24T03:33:05;15.32;;;11.65;;
32038;SDS011;18549;42.286;22.688;2023-08-24T03:35:32;19.60;;;16.67;;
32038;SDS011;18549;42.286;22.688;2023-08-24T03:37:59;34.22;;;20.33;;
32038;SDS011;18549;42.286;22.688;2023-08-24T03:40:26;21.00;;;13.82;;
32038;SDS011;18549;42.286;22.688;2023-08-24T03:42:54;13.80;;;11.50;;
32038;SDS011;18549;42.286;22.688;2023-08-24T03:45:23;19.12;;;10.45;;
32038;SDS011;18549;42.286;22.688;2023-08-24T03:47:49;12.27;;;10.48;;
32038;SDS011;18549;42.286;22.688;2023-08-24T03:50:18;17.83;;;10.82;;
32038;SDS011;18549;42.286;22.688;2023-08-24T03:52:45;15.30;;;10.18;;
32038;SDS011;18549;42.286;22.688;2023-08-24T03:55:14;14.68;;;10.68;;
32038;SDS011;18549;42.286;22.688;2023-08-24T03:57:43;13.57;;;9.43;;
32038;SDS011;18549;42.286;22.688;2023-08-24T04:00:10;12.63;;;11.02;;
32038;SDS011;18549;42.286;22.688;2023-08-24T04:02:41;10.57;;;9.40;;
32038;SDS011;18549;42.286;22.688;2023-08-24T04:05:08;10.55;;;9.45;;
32038;SDS011;18549;42.286;22.688;2023-08-24T04:07:34;19.17;;;10.20;;
32038;SDS011;18549;42.286;22.688;2023-08-24T04:10:03;15.73;;;10.38;;
32038;SDS011;18549;42.286;22.688;2023-08-24T04:12:31;14.25;;;11.05;;
32038;SDS011;18549;42.286;22.688;2023-08-24T04:14:58;16.25;;;11.45;;
32038;SDS011;18549;42.286;22.688;2023-08-24T04:17:25;19.20;;;11.60;;
32038;SDS011;18549;42.286;22.688;2023-08-24T04:19:54;13.30;;;11.40;;
32038;SDS011;18549;42.286;22.688;2023-08-24T04:22:21;13.48;;;11.43;;
32038;SDS011;18549;42.286;22.688;2023-08-24T04:24:48;13.95;;;10.82;;
32038;SDS011;18549;42.286;22.688;2023-08-24T04:27:15;15.60;;;11.45;;
32038;SDS011;18549;42.286;22.688;2023-08-24T04:29:42;13.05;;;10.55;;
32038;SDS011;18549;42.286;22.688;2023-08-24T04:32:09;12.25;;;10.93;;
32038;SDS011;18549;42.286;22.688;2023-08-24T04:34:35;12.15;;;10.88;;
32038;SDS011;18549;42.286;22.688;2023-08-24T04:37:05;22.55;;;11.77;;
32038;SDS011;18549;42.286;22.688;2023-08-24T04:39:32;12.98;;;10.93;;
32038;SDS011;18549;42.286;22.688;2023-08-24T04:42:00;13.38;;;11.98;;
32038;SDS011;18549;42.286;22.688;2023-08-24T04:44:27;16.15;;;11.95;;
32038;SDS011;18549;42.286;22.688;2023-08-24T04:46:54;16.00;;;11.98;;
32038;SDS011;18549;42.286;22.688;2023-08-24T04:49:21;12.52;;;10.45;;
32038;SDS011;18549;42.286;22.688;2023-08-24T04:51:48;18.35;;;12.77;;
32038;SDS011;18549;42.286;22.688;2023-08-24T04:54:16;13.65;;;11.30;;
32038;SDS011;18549;42.286;22.688;2023-08-24T04:56:43;18.90;;;11.77;;
32038;SDS011;18549;42.286;22.688;2023-08-24T04:59:10;17.58;;;11.30;;
32038;SDS011;18549;42.286;22.688;2023-08-24T05:01:37;15.98;;;11.57;;
32038;SDS011;18549;42.286;22.688;2023-08-24T05:04:04;20.52;;;12.25;;
32038;SDS011;18549;42.286;22.688;2023-08-24T05:06:34;17.70;;;12.70;;
32038;SDS011;18549;42.286;22.688;2023-08-24T05:09:01;16.15;;;11.82;;
32038;SDS011;18549;42.286;22.688;2023-08-24T05:11:29;14.00;;;12.10;;
32038;SDS011;18549;42.286;22.688;2023-08-24T05:13:56;14.87;;;10.48;;
32038;SDS011;18549;42.286;22.688;2023-08-24T05:16:23;17.05;;;10.88;;
32038;SDS011;18549;42.286;22.688;2023-08-24T05:18:49;11.85;;;10.68;;
32038;SDS011;18549;42.286;22.688;2023-08-24T05:21:16;15.57;;;10.93;;
32038;SDS011;18549;42.286;22.688;2023-08-24T05:23:44;26.90;;;13.02;;
32038;SDS011;18549;42.286;22.688;2023-08-24T05:26:10;14.25;;;12.10;;
32038;SDS011;18549;42.286;22.688;2023-08-24T05:28:38;22.37;;;12.27;;
32038;SDS011;18549;42.286;22.688;2023-08-24T05:31:05;18.37;;;11.65;;
32038;SDS011;18549;42.286;22.688;2023-08-24T05:33:32;16.62;;;11.00;;
32038;SDS011;18549;42.286;22.688;2023-08-24T05:35:59;19.70;;;12.10;;
32038;SDS011;18549;42.286;22.688;2023-08-24T05:38:26;18.98;;;11.80;;
32038;SDS011;18549;42.286;22.688;2023-08-24T05:40:53;16.35;;;10.68;;
32038;SDS011;18549;42.286;22.688;2023-08-24T05:43:22;22.75;;;11.40;;
32038;SDS011;18549;42.286;22.688;2023-08-24T05:45:50;27.95;;;12.90;;
32038;SDS011;18549;42.286;22.688;2023-08-24T05:48:18;14.48;;;11.88;;
32038;SDS011;18549;42.286;22.688;2023-08-24T05:50:45;24.52;;;12.55;;
32038;SDS011;18549;42.286;22.688;2023-08-24T05:53:13;21.33;;;11.77;;
32038;SDS011;18549;42.286;22.688;2023-08-24T05:55:40;20.37;;;11.57;;
32038;SDS011;18549;42.286;22.688;2023-08-24T05:58:07;13.75;;;12.27;;
32038;SDS011;18549;42.286;22.688;2023-08-24T06:00:34;18.70;;;11.65;;
32038;SDS011;18549;42.286;22.688;2023-08-24T06:03:04;18.85;;;12.35;;
32038;SDS011;18549;42.286;22.688;2023-08-24T06:05:35;22.13;;;11.63;;
32038;SDS011;18549;42.286;22.688;2023-08-24T06:08:02;24.80;;;12.05;;
32038;SDS011;18549;42.286;22.688;2023-08-24T06:10:29;37.53;;;16.35;;
32038;SDS011;18549;42.286;22.688;2023-08-24T06:12:56;22.13;;;14.23;;
32038;SDS011;18549;42.286;22.688;2023-08-24T06:15:26;18.98;;;12.73;;
32038;SDS011;18549;42.286;22.688;2023-08-24T06:17:53;19.23;;;13.10;;
32038;SDS011;18549;42.286;22.688;2023-08-24T06:20:21;14.38;;;11.68;;
32038;SDS011;18549;42.286;22.688;2023-08-24T06:22:48;16.02;;;11.93;;
32038;SDS011;18549;42.286;22.688;2023-08-24T06:25:15;27.02;;;12.35;;
32038;SDS011;18549;42.286;22.688;2023-08-24T06:27:42;16.10;;;11.63;;
32038;SDS011;18549;42.286;22.688;2023-08-24T06:30:09;17.20;;;11.23;;
32038;SDS011;18549;42.286;22.688;2023-08-24T06:32:36;14.07;;;11.40;;
32038;SDS011;18549;42.286;22.688;2023-08-24T06:35:03;23.00;;;11.38;;
32038;SDS011;18549;42.286;22.688;2023-08-24T06:37:32;12.37;;;11.02;;
32038;SDS011;18549;42.286;22.688;2023-08-24T06:39:59;13.65;;;12.13;;
32038;SDS011;18549;42.286;22.688;2023-08-24T06:42:26;21.45;;;12.60;;
32038;SDS011;18549;42.286;22.688;2023-08-24T06:44:53;16.37;;;12.10;;
32038;SDS011;18549;42.286;22.688;2023-08-24T06:47:20;19.05;;;12.13;;
32038;SDS011;18549;42.286;22.688;2023-08-24T06:49:46;17.15;;;12.37;;
32038;SDS011;18549;42.286;22.688;2023-08-24T06:52:13;13.82;;;11.07;;
32038;SDS011;18549;42.286;22.688;2023-08-24T06:54:42;14.25;;;11.52;;
32038;SDS011;18549;42.286;22.688;2023-08-24T06:57:10;11.88;;;10.77;;
32038;SDS011;18549;42.286;22.688;2023-08-24T06:59:36;13.77;;;11.43;;
32038;SDS011;18549;42.286;22.688;2023-08-24T07:02:06;16.62;;;12.25;;
32038;SDS011;18549;42.286;22.688;2023-08-24T07:04:33;17.83;;;11.63;;
32038;SDS011;18549;42.286;22.688;2023-08-24T07:07:00;13.18;;;11.68;;
32038;SDS011;18549;42.286;22.688;2023-08-24T07:09:27;15.05;;;11.70;;
32038;SDS011;18549;42.286;22.688;2023-08-24T07:11:55;13.70;;;12.40;;
32038;SDS011;18549;42.286;22.688;2023-08-24T07:14:22;12.25;;;10.93;;
32038;SDS011;18549;42.286;22.688;2023-08-24T07:16:51;13.52;;;12.00;;
32038;SDS011;18549;42.286;22.688;2023-08-24T07:19:18;20.80;;;11.27;;
32038;SDS011;18549;42.286;22.688;2023-08-24T07:21:45;12.20;;;10.98;;
32038;SDS011;18549;42.286;22.688;2023-08-24T07:24:12;13.38;;;11.98;;
32038;SDS011;18549;42.286;22.688;2023-08-24T07:26:39;15.13;;;11.60;;
32038;SDS011;18549;42.286;22.688;2023-08-24T07:29:08;14.48;;;11.80;;
32038;SDS011;18549;42.286;22.688;2023-08-24T07:31:35;17.23;;;11.50;;
32038;SDS011;18549;42.286;22.688;2023-08-24T07:34:02;14.87;;;11.93;;
32038;SDS011;18549;42.286;22.688;2023-08-24T07:36:28;14.10;;;11.98;;
32038;SDS011;18549;42.286;22.688;2023-08-24T07:38:58;17.40;;;10.77;;
32038;SDS011;18549;42.286;22.688;2023-08-24T07:41:24;14.18;;;10.30;;
32038;SDS011;18549;42.286;22.688;2023-08-24T07:43:51;15.80;;;11.63;;
32038;SDS011;18549;42.286;22.688;2023-08-24T07:46:21;15.23;;;11.18;;
32038;SDS011;18549;42.286;22.688;2023-08-24T07:48:48;17.95;;;10.90;;
32038;SDS011;18549;42.286;22.688;2023-08-24T07:51:14;13.45;;;10.38;;
32038;SDS011;18549;42.286;22.688;2023-08-24T07:53:41;13.98;;;10.80;;
32038;SDS011;18549;42.286;22.688;2023-08-24T07:56:08;12.23;;;10.98;;
32038;SDS011;18549;42.286;22.688;2023-08-24T07:58:35;18.67;;;11.50;;
32038;SDS011;18549;42.286;22.688;2023-08-24T08:01:02;20.12;;;10.77;;
32038;SDS011;18549;42.286;22.688;2023-08-24T08:03:31;18.35;;;11.95;;
32038;SDS011;18549;42.286;22.688;2023-08-24T08:05:58;12.90;;;11.15;;
32038;SDS011;18549;42.286;22.688;2023-08-24T08:08:25;24.65;;;10.88;;
32038;SDS011;18549;42.286;22.688;2023-08-24T08:10:58;12.07;;;10.73;;
32038;SDS011;18549;42.286;22.688;2023-08-24T08:13:26;15.33;;;11.30;;
32038;SDS011;18549;42.286;22.688;2023-08-24T08:16:00;19.67;;;11.75;;
32038;SDS011;18549;42.286;22.688;2023-08-24T08:18:28;15.75;;;11.25;;
32038;SDS011;18549;42.286;22.688;2023-08-24T08:20:57;18.45;;;10.65;;
32038;SDS011;18549;42.286;22.688;2023-08-24T08:23:26;13.73;;;10.88;;
32038;SDS011;18549;42.286;22.688;2023-08-24T08:25:55;21.33;;;12.00;;
32038;SDS011;18549;42.286;22.688;2023-08-24T08:28:23;17.70;;;11.40;;
32038;SDS011;18549;42.286;22.688;2023-08-24T08:30:52;12.02;;;10.63;;
32038;SDS011;18549;42.286;22.688;2023-08-24T08:33:20;11.73;;;10.40;;
32038;SDS011;18549;42.286;22.688;2023-08-24T08:35:48;24.50;;;11.45;;
32038;SDS011;18549;42.286;22.688;2023-08-24T08:38:18;24.30;;;11.12;;
32038;SDS011;18549;42.286;22.688;2023-08-24T08:40:51;18.55;;;10.30;;
32038;SDS011;18549;42.286;22.688;2023-08-24T08:43:21;18.48;;;9.73;;
32038;SDS011;18549;42.286;22.688;2023-08-24T08:45:49;15.55;;;9.73;;
32038;SDS011;18549;42.286;22.688;2023-08-24T08:48:18;10.63;;;9.57;;
32038;SDS011;18549;42.286;22.688;2023-08-24T08:50:48;17.40;;;9.20;;
32038;SDS011;18549;42.286;22.688;2023-08-24T08:53:20;12.23;;;9.60;;
32038;SDS011;18549;42.286;22.688;2023-08-24T08:55:48;9.80;;;8.90;;
32038;SDS011;18549;42.286;22.688;2023-08-24T08:58:18;14.93;;;9.88;;
32038;SDS011;18549;42.286;22.688;2023-08-24T09:00:46;11.20;;;9.27;;
32038;SDS011;18549;42.286;22.688;2023-08-24T09:03:13;10.52;;;9.40;;
32038;SDS011;18549;42.286;22.688;2023-08-24T09:05:44;12.88;;;9.15;;
32038;SDS011;18549;42.286;22.688;2023-08-24T09:08:13;11.38;;;9.93;;
32038;SDS011;18549;42.286;22.688;2023-08-24T09:10:44;14.27;;;9.07;;
32038;SDS011;18549;42.286;22.688;2023-08-24T09:13:11;16.75;;;9.68;;
32038;SDS011;18549;42.286;22.688;2023-08-24T09:15:38;16.23;;;10.03;;
32038;SDS011;18549;42.286;22.688;2023-08-24T09:18:06;10.90;;;9.38;;
32038;SDS011;18549;42.286;22.688;2023-08-24T09:20:33;10.40;;;9.18;;
32038;SDS011;18549;42.286;22.688;2023-08-24T09:23:01;11.55;;;10.10;;
32038;SDS011;18549;42.286;22.688;2023-08-24T09:25:30;10.38;;;9.38;;
32038;SDS011;18549;42.286;22.688;2023-08-24T09:27:59;12.05;;;9.88;;
32038;SDS011;18549;42.286;22.688;2023-08-24T09:30:30;13.32;;;10.45;;
32038;SDS011;18549;42.286;22.688;2023-08-24T09:33:01;16.12;;;9.02;;
32038;SDS011;18549;42.286;22.688;2023-08-24T09:35:35;11.15;;;8.68;;
32038;SDS011;18549;42.286;22.688;2023-08-24T09:38:15;10.52;;;8.98;;
32038;SDS011;18549;42.286;22.688;2023-08-24T09:40:44;13.50;;;9.25;;
32038;SDS011;18549;42.286;22.688;2023-08-24T09:43:15;17.90;;;9.30;;
32038;SDS011;18549;42.286;22.688;2023-08-24T09:45:50;11.12;;;9.40;;
32038;SDS011;18549;42.286;22.688;2023-08-24T09:48:18;13.65;;;9.98;;
32038;SDS011;18549;42.286;22.688;2023-08-24T09:50:46;19.65;;;10.05;;
32038;SDS011;18549;42.286;22.688;2023-08-24T09:53:17;21.52;;;10.00;;
32038;SDS011;18549;42.286;22.688;2023-08-24T09:55:53;14.05;;;9.30;;
32038;SDS011;18549;42.286;22.688;2023-08-24T09:58:24;12.32;;;9.23;;
32038;SDS011;18549;42.286;22.688;2023-08-24T10:00:54;23.65;;;9.50;;
32038;SDS011;18549;42.286;22.688;2023-08-24T10:03:24;14.75;;;9.82;;
32038;SDS011;18549;42.286;22.688;2023-08-24T10:05:52;12.80;;;9.93;;
32038;SDS011;18549;42.286;22.688;2023-08-24T10:08:24;10.65;;;9.65;;
32038;SDS011;18549;42.286;22.688;2023-08-24T10:10:56;12.73;;;9.05;;
32038;SDS011;18549;42.286;22.688;2023-08-24T10:13:29;12.48;;;8.93;;
32038;SDS011;18549;42.286;22.688;2023-08-24T10:16:02;10.10;;;9.05;;
32038;SDS011;18549;42.286;22.688;2023-08-24T10:18:31;9.52;;;8.63;;
32038;SDS011;18549;42.286;22.688;2023-08-24T10:20:59;12.80;;;7.95;;
32038;SDS011;18549;42.286;22.688;2023-08-24T10:23:28;17.60;;;9.82;;
32038;SDS011;18549;42.286;22.688;2023-08-24T10:25:57;16.37;;;9.55;;
32038;SDS011;18549;42.286;22.688;2023-08-24T10:28:30;10.60;;;8.52;;
32038;SDS011;18549;42.286;22.688;2023-08-24T10:30:58;17.83;;;9.23;;
32038;SDS011;18549;42.286;22.688;2023-08-24T10:33:27;15.07;;;8.90;;
32038;SDS011;18549;42.286;22.688;2023-08-24T10:35:57;13.45;;;8.00;;
32038;SDS011;18549;42.286;22.688;2023-08-24T10:38:25;11.23;;;7.85;;
32038;SDS011;18549;42.286;22.688;2023-08-24T10:40:54;19.92;;;8.93;;
32038;SDS011;18549;42.286;22.688;2023-08-24T10:43:30;14.73;;;9.05;;
32038;SDS011;18549;42.286;22.688;2023-08-24T10:46:01;11.65;;;7.62;;
32038;SDS011;18549;42.286;22.688;2023-08-24T10:48:31;13.85;;;8.38;;
32038;SDS011;18549;42.286;22.688;2023-08-24T10:51:22;11.45;;;8.18;;
32038;SDS011;18549;42.286;22.688;2023-08-24T10:53:52;11.82;;;7.78;;
32038;SDS011;18549;42.286;22.688;2023-08-24T10:56:20;8.25;;;7.45;;
32038;SDS011;18549;42.286;22.688;2023-08-24T11:01:38;8.52;;;7.50;;
32038;SDS011;18549;42.286;22.688;2023-08-24T11:04:06;12.88;;;7.87;;
32038;SDS011;18549;42.286;22.688;2023-08-24T11:06:34;16.33;;;8.02;;
32038;SDS011;18549;42.286;22.688;2023-08-24T11:09:17;9.05;;;7.65;;
32038;SDS011;18549;42.286;22.688;2023-08-24T11:11:55;13.35;;;7.55;;
32038;SDS011;18549;42.286;22.688;2023-08-24T11:14:26;17.50;;;8.00;;
32038;SDS011;18549;42.286;22.688;2023-08-24T11:16:56;10.18;;;7.93;;
32038;SDS011;18549;42.286;22.688;2023-08-24T11:19:24;11.70;;;7.60;;
32038;SDS011;18549;42.286;22.688;2023-08-24T11:21:52;9.88;;;7.55;;
32038;SDS011;18549;42.286;22.688;2023-08-24T11:24:20;10.45;;;7.95;;
32038;SDS011;18549;42.286;22.688;2023-08-24T11:26:51;15.13;;;7.95;;
32038;SDS011;18549;42.286;22.688;2023-08-24T11:29:18;9.35;;;7.28;;
32038;SDS011;18549;42.286;22.688;2023-08-24T11:31:47;8.23;;;7.00;;
32038;SDS011;18549;42.286;22.688;2023-08-24T11:34:14;8.13;;;7.30;;
32038;SDS011;18549;42.286;22.688;2023-08-24T11:36:42;11.90;;;7.15;;
32038;SDS011;18549;42.286;22.688;2023-08-24T11:39:17;12.57;;;7.82;;
32038;SDS011;18549;42.286;22.688;2023-08-24T11:41:46;10.52;;;7.53;;
32038;SDS011;18549;42.286;22.688;2023-08-24T11:44:24;10.23;;;6.75;;
32038;SDS011;18549;42.286;22.688;2023-08-24T11:46:52;10.43;;;6.45;;
32038;SDS011;18549;42.286;22.688;2023-08-24T11:49:22;7.15;;;5.82;;
32038;SDS011;18549;42.286;22.688;2023-08-24T11:51:50;12.98;;;6.53;;
32038;SDS011;18549;42.286;22.688;2023-08-24T11:54:18;8.00;;;7.03;;
32038;SDS011;18549;42.286;22.688;2023-08-24T11:56:46;17.75;;;6.30;;
32038;SDS011;18549;42.286;22.688;2023-08-24T11:59:12;10.70;;;6.07;;
32038;SDS011;18549;42.286;22.688;2023-08-24T12:01:40;10.10;;;6.03;;
32038;SDS011;18549;42.286;22.688;2023-08-24T12:04:09;9.37;;;5.50;;
32038;SDS011;18549;42.286;22.688;2023-08-24T12:06:37;7.50;;;5.72;;
32038;SDS011;18549;42.286;22.688;2023-08-24T12:09:05;5.75;;;5.05;;
32038;SDS011;18549;42.286;22.688;2023-08-24T12:11:34;7.45;;;6.30;;
32038;SDS011;18549;42.286;22.688;2023-08-24T12:14:02;9.20;;;6.18;;
32038;SDS011;18549;42.286;22.688;2023-08-24T12:16:30;17.48;;;6.28;;
32038;SDS011;18549;42.286;22.688;2023-08-24T12:18:59;20.10;;;7.20;;
32038;SDS011;18549;42.286;22.688;2023-08-24T12:21:29;29.55;;;8.13;;
32038;SDS011;18549;42.286;22.688;2023-08-24T12:23:57;16.83;;;7.50;;
32038;SDS011;18549;42.286;22.688;2023-08-24T12:26:25;14.68;;;7.62;;
32038;SDS011;18549;42.286;22.688;2023-08-24T12:28:52;9.75;;;7.80;;
32038;SDS011;18549;42.286;22.688;2023-08-24T12:31:19;12.60;;;8.18;;
32038;SDS011;18549;42.286;22.688;2023-08-24T12:33:56;11.57;;;6.53;;
32038;SDS011;18549;42.286;22.688;2023-08-24T12:36:25;8.52;;;7.12;;
32038;SDS011;18549;42.286;22.688;2023-08-24T12:38:53;8.25;;;6.80;;
32038;SDS011;18549;42.286;22.688;2023-08-24T12:41:19;10.73;;;6.45;;
32038;SDS011;18549;42.286;22.688;2023-08-24T12:43:46;12.85;;;7.28;;
32038;SDS011;18549;42.286;22.688;2023-08-24T12:46:13;10.80;;;7.22;;
32038;SDS011;18549;42.286;22.688;2023-08-24T12:48:40;12.07;;;6.35;;
32038;SDS011;18549;42.286;22.688;2023-08-24T12:51:06;11.90;;;7.50;;
32038;SDS011;18549;42.286;22.688;2023-08-24T12:53:33;15.63;;;8.30;;
32038;SDS011;18549;42.286;22.688;2023-08-24T12:56:01;19.58;;;7.50;;
32038;SDS011;18549;42.286;22.688;2023-08-24T12:58:29;16.73;;;7.40;;
32038;SDS011;18549;42.286;22.688;2023-08-24T13:00:56;11.10;;;7.37;;
32038;SDS011;18549;42.286;22.688;2023-08-24T13:03:22;9.05;;;7.40;;
32038;SDS011;18549;42.286;22.688;2023-08-24T13:05:50;8.43;;;7.47;;
32038;SDS011;18549;42.286;22.688;2023-08-24T13:08:18;11.80;;;8.38;;
32038;SDS011;18549;42.286;22.688;2023-08-24T13:10:45;13.45;;;8.85;;
32038;SDS011;18549;42.286;22.688;2023-08-24T13:13:16;11.68;;;7.97;;
32038;SDS011;18549;42.286;22.688;2023-08-24T13:15:45;15.75;;;7.47;;
32038;SDS011;18549;42.286;22.688;2023-08-24T13:18:14;13.62;;;8.15;;
32038;SDS011;18549;42.286;22.688;2023-08-24T13:20:40;9.55;;;8.52;;
32038;SDS011;18549;42.286;22.688;2023-08-24T13:23:07;9.93;;;7.53;;
32038;SDS011;18549;42.286;22.688;2023-08-24T13:25:34;9.82;;;7.80;;
32038;SDS011;18549;42.286;22.688;2023-08-24T13:28:01;12.60;;;8.00;;
32038;SDS011;18549;42.286;22.688;2023-08-24T13:30:29;10.48;;;7.95;;
32038;SDS011;18549;42.286;22.688;2023-08-24T13:32:56;10.82;;;8.40;;
32038;SDS011;18549;42.286;22.688;2023-08-24T13:35:23;11.07;;;8.73;;
32038;SDS011;18549;42.286;22.688;2023-08-24T13:37:50;17.30;;;9.05;;
32038;SDS011;18549;42.286;22.688;2023-08-24T13:40:16;14.75;;;8.30;;
32038;SDS011;18549;42.286;22.688;2023-08-24T13:42:44;10.52;;;8.65;;
32038;SDS011;18549;42.286;22.688;2023-08-24T13:45:11;13.25;;;9.57;;
32038;SDS011;18549;42.286;22.688;2023-08-24T13:47:39;13.68;;;9.43;;
32038;SDS011;18549;42.286;22.688;2023-08-24T13:50:06;15.45;;;8.48;;
32038;SDS011;18549;42.286;22.688;2023-08-24T13:52:35;19.37;;;9.18;;
32038;SDS011;18549;42.286;22.688;2023-08-24T13:55:02;12.63;;;8.07;;
32038;SDS011;18549;42.286;22.688;2023-08-24T13:57:31;9.65;;;8.02;;
32038;SDS011;18549;42.286;22.688;2023-08-24T13:59:58;12.25;;;8.85;;
32038;SDS011;18549;42.286;22.688;2023-08-24T14:02:26;14.07;;;8.68;;
32038;SDS011;18549;42.286;22.688;2023-08-24T14:04:54;11.15;;;8.23;;
32038;SDS011;18549;42.286;22.688;2023-08-24T14:07:21;17.60;;;9.27;;
32038;SDS011;18549;42.286;22.688;2023-08-24T14:09:48;12.50;;;9.15;;
32038;SDS011;18549;42.286;22.688;2023-08-24T14:12:18;10.50;;;9.25;;
32038;SDS011;18549;42.286;22.688;2023-08-24T14:14:45;12.10;;;8.60;;
32038;SDS011;18549;42.286;22.688;2023-08-24T14:17:12;10.32;;;8.27;;
32038;SDS011;18549;42.286;22.688;2023-08-24T14:19:40;12.02;;;10.00;;
32038;SDS011;18549;42.286;22.688;2023-08-24T14:22:08;12.63;;;9.07;;
32038;SDS011;18549;42.286;22.688;2023-08-24T14:24:35;12.30;;;8.88;;